sensor_id;sensor_type;location;lat;lon;timestamp;P1;durP1;ratioP1;P2;durP2;ratioP2
56373;SDS011;58212;47.034;7.376;2023-03-01T00:01:44;23.67;;;19.95;;
56373;SDS011;58212;47.034;7.376;2023-03-01T00:04:13;22.75;;;19.20;;
56373;SDS011;58212;47.034;7.376;2023-03-01T00:06:41;21.83;;;19.40;;
56373;SDS011;58212;47.034;7.376;2023-03-01T00:09:14;22.02;;;19.27;;
56373;SDS011;58212;47.034;7.376;2023-03-01T00:11:41;22.33;;;19.83;;
56373;SDS011;58212;47.034;7.376;2023-03-01T00:14:09;21.83;;;19.50;;
56373;SDS011;58212;47.034;7.376;2023-03-01T00:16:36;21.23;;;18.80;;
56373;SDS011;58212;47.034;7.376;2023-03-01T00:19:05;23.50;;;19.90;;
56373;SDS011;58212;47.034;7.376;2023-03-01T00:21:35;21.27;;;19.08;;
56373;SDS011;58212;47.034;7.376;2023-03-01T00:24:02;22.77;;;19.48;;
56373;SDS011;58212;47.034;7.376;2023-03-01T00:26:30;23.85;;;20.90;;
56373;SDS011;58212;47.034;7.376;2023-03-01T00:28:57;22.27;;;19.20;;
56373;SDS011;58212;47.034;7.376;2023-03-01T00:31:24;22.15;;;19.65;;
56373;SDS011;58212;47.034;7.376;2023-03-01T00:33:53;23.90;;;20.10;;
56373;SDS011;58212;47.034;7.376;2023-03-01T00:36:23;22.63;;;19.70;;
56373;SDS011;58212;47.034;7.376;2023-03-01T00:38:54;21.67;;;19.15;;
56373;SDS011;58212;47.034;7.376;2023-03-01T00:41:21;23.15;;;19.70;;
56373;SDS011;58212;47.034;7.376;2023-03-01T00:43:51;23.92;;;19.45;;
56373;SDS011;58212;47.034;7.376;2023-03-01T00:46:19;24.77;;;19.70;;
56373;SDS011;58212;47.034;7.376;2023-03-01T00:48:48;22.08;;;19.60;;
56373;SDS011;58212;47.034;7.376;2023-03-01T00:51:16;24.08;;;20.35;;
56373;SDS011;58212;47.034;7.376;2023-03-01T00:53:44;23.33;;;20.25;;
56373;SDS011;58212;47.034;7.376;2023-03-01T00:56:14;24.15;;;19.88;;
56373;SDS011;58212;47.034;7.376;2023-03-01T00:58:42;23.95;;;20.40;;
56373;SDS011;58212;47.034;7.376;2023-03-01T01:01:10;24.90;;;20.45;;
56373;SDS011;58212;47.034;7.376;2023-03-01T01:03:43;21.95;;;19.30;;
56373;SDS011;58212;47.034;7.376;2023-03-01T01:06:16;24.52;;;20.55;;
56373;SDS011;58212;47.034;7.376;2023-03-01T01:08:44;23.40;;;20.60;;
56373;SDS011;58212;47.034;7.376;2023-03-01T01:11:11;22.67;;;19.58;;
56373;SDS011;58212;47.034;7.376;2023-03-01T01:13:40;22.38;;;19.33;;
56373;SDS011;58212;47.034;7.376;2023-03-01T01:16:08;22.40;;;19.40;;
56373;SDS011;58212;47.034;7.376;2023-03-01T01:18:37;24.17;;;20.73;;
56373;SDS011;58212;47.034;7.376;2023-03-01T01:21:05;22.45;;;19.98;;
56373;SDS011;58212;47.034;7.376;2023-03-01T01:23:33;21.95;;;18.92;;
56373;SDS011;58212;47.034;7.376;2023-03-01T01:26:04;23.98;;;20.63;;
56373;SDS011;58212;47.034;7.376;2023-03-01T01:28:35;23.08;;;19.67;;
56373;SDS011;58212;47.034;7.376;2023-03-01T01:31:02;22.08;;;19.48;;
56373;SDS011;58212;47.034;7.376;2023-03-01T01:33:31;22.90;;;19.55;;
56373;SDS011;58212;47.034;7.376;2023-03-01T01:35:58;23.02;;;19.25;;
56373;SDS011;58212;47.034;7.376;2023-03-01T01:38:25;27.45;;;20.23;;
56373;SDS011;58212;47.034;7.376;2023-03-01T01:40:53;23.48;;;19.58;;
56373;SDS011;58212;47.034;7.376;2023-03-01T01:43:21;23.92;;;20.65;;
56373;SDS011;58212;47.034;7.376;2023-03-01T01:45:51;25.08;;;19.98;;
56373;SDS011;58212;47.034;7.376;2023-03-01T01:48:24;23.02;;;19.58;;
56373;SDS011;58212;47.034;7.376;2023-03-01T01:51:06;23.15;;;19.88;;
56373;SDS011;58212;47.034;7.376;2023-03-01T01:53:37;22.95;;;19.50;;
56373;SDS011;58212;47.034;7.376;2023-03-01T01:56:06;21.20;;;18.92;;
56373;SDS011;58212;47.034;7.376;2023-03-01T01:58:35;23.63;;;19.17;;
56373;SDS011;58212;47.034;7.376;2023-03-01T02:01:04;25.08;;;20.77;;
56373;SDS011;58212;47.034;7.376;2023-03-01T02:03:32;22.90;;;19.52;;
56373;SDS011;58212;47.034;7.376;2023-03-01T02:06:06;24.80;;;20.73;;
56373;SDS011;58212;47.034;7.376;2023-03-01T02:08:40;24.42;;;20.98;;
56373;SDS011;58212;47.034;7.376;2023-03-01T02:11:08;24.80;;;21.23;;
56373;SDS011;58212;47.034;7.376;2023-03-01T02:13:39;23.88;;;21.15;;
56373;SDS011;58212;47.034;7.376;2023-03-01T02:16:34;24.10;;;20.30;;
56373;SDS011;58212;47.034;7.376;2023-03-01T02:19:01;25.70;;;20.60;;
56373;SDS011;58212;47.034;7.376;2023-03-01T02:21:34;24.50;;;20.70;;
56373;SDS011;58212;47.034;7.376;2023-03-01T02:24:12;23.77;;;21.00;;
56373;SDS011;58212;47.034;7.376;2023-03-01T02:26:48;23.88;;;20.50;;
56373;SDS011;58212;47.034;7.376;2023-03-01T02:29:20;25.73;;;21.58;;
56373;SDS011;58212;47.034;7.376;2023-03-01T02:31:48;24.58;;;20.52;;
56373;SDS011;58212;47.034;7.376;2023-03-01T02:34:18;23.90;;;20.55;;
56373;SDS011;58212;47.034;7.376;2023-03-01T02:36:47;24.75;;;20.30;;
56373;SDS011;58212;47.034;7.376;2023-03-01T02:39:17;24.52;;;20.92;;
56373;SDS011;58212;47.034;7.376;2023-03-01T02:41:50;22.92;;;19.95;;
56373;SDS011;58212;47.034;7.376;2023-03-01T02:44:20;24.40;;;20.25;;
56373;SDS011;58212;47.034;7.376;2023-03-01T02:46:49;24.08;;;20.40;;
56373;SDS011;58212;47.034;7.376;2023-03-01T02:49:23;24.15;;;20.67;;
56373;SDS011;58212;47.034;7.376;2023-03-01T02:52:01;25.92;;;20.70;;
56373;SDS011;58212;47.034;7.376;2023-03-01T02:54:43;24.05;;;20.38;;
56373;SDS011;58212;47.034;7.376;2023-03-01T02:57:14;23.65;;;19.48;;
56373;SDS011;58212;47.034;7.376;2023-03-01T02:59:44;22.60;;;19.92;;
56373;SDS011;58212;47.034;7.376;2023-03-01T03:02:18;25.50;;;21.23;;
56373;SDS011;58212;47.034;7.376;2023-03-01T03:05:07;28.33;;;21.85;;
56373;SDS011;58212;47.034;7.376;2023-03-01T03:07:36;25.00;;;19.90;;
56373;SDS011;58212;47.034;7.376;2023-03-01T03:10:04;24.45;;;18.80;;
56373;SDS011;58212;47.034;7.376;2023-03-01T03:12:32;25.42;;;19.10;;
56373;SDS011;58212;47.034;7.376;2023-03-01T03:15:01;25.98;;;19.80;;
56373;SDS011;58212;47.034;7.376;2023-03-01T03:17:34;24.35;;;19.50;;
56373;SDS011;58212;47.034;7.376;2023-03-01T03:20:01;24.15;;;19.42;;
56373;SDS011;58212;47.034;7.376;2023-03-01T03:22:30;27.67;;;20.15;;
56373;SDS011;58212;47.034;7.376;2023-03-01T03:24:56;25.52;;;20.25;;
56373;SDS011;58212;47.034;7.376;2023-03-01T03:27:23;24.30;;;19.13;;
56373;SDS011;58212;47.034;7.376;2023-03-01T03:29:50;24.02;;;19.63;;
56373;SDS011;58212;47.034;7.376;2023-03-01T03:32:19;24.38;;;19.17;;
56373;SDS011;58212;47.034;7.376;2023-03-01T03:34:50;27.05;;;20.58;;
56373;SDS011;58212;47.034;7.376;2023-03-01T03:37:17;24.25;;;19.33;;
56373;SDS011;58212;47.034;7.376;2023-03-01T03:39:58;24.67;;;20.23;;
56373;SDS011;58212;47.034;7.376;2023-03-01T03:42:25;25.00;;;20.35;;
56373;SDS011;58212;47.034;7.376;2023-03-01T03:44:53;24.52;;;19.90;;
56373;SDS011;58212;47.034;7.376;2023-03-01T03:47:21;26.00;;;19.88;;
56373;SDS011;58212;47.034;7.376;2023-03-01T03:49:48;25.77;;;18.58;;
56373;SDS011;58212;47.034;7.376;2023-03-01T03:52:15;25.67;;;20.40;;
56373;SDS011;58212;47.034;7.376;2023-03-01T03:54:42;24.88;;;19.83;;
56373;SDS011;58212;47.034;7.376;2023-03-01T03:57:09;25.55;;;19.67;;
56373;SDS011;58212;47.034;7.376;2023-03-01T03:59:36;24.60;;;19.25;;
56373;SDS011;58212;47.034;7.376;2023-03-01T04:02:03;25.20;;;18.85;;
56373;SDS011;58212;47.034;7.376;2023-03-01T04:07:01;25.88;;;19.83;;
56373;SDS011;58212;47.034;7.376;2023-03-01T04:09:28;24.73;;;19.25;;
56373;SDS011;58212;47.034;7.376;2023-03-01T04:11:56;25.98;;;20.58;;
56373;SDS011;58212;47.034;7.376;2023-03-01T04:14:23;26.38;;;19.90;;
56373;SDS011;58212;47.034;7.376;2023-03-01T04:16:51;26.98;;;20.30;;
56373;SDS011;58212;47.034;7.376;2023-03-01T04:19:18;24.52;;;20.25;;
56373;SDS011;58212;47.034;7.376;2023-03-01T04:21:46;26.00;;;18.55;;
56373;SDS011;58212;47.034;7.376;2023-03-01T04:24:13;24.73;;;20.25;;
56373;SDS011;58212;47.034;7.376;2023-03-01T04:26:40;25.88;;;20.17;;
56373;SDS011;58212;47.034;7.376;2023-03-01T04:29:07;24.98;;;20.20;;
56373;SDS011;58212;47.034;7.376;2023-03-01T04:31:33;29.48;;;21.85;;
56373;SDS011;58212;47.034;7.376;2023-03-01T04:34:00;26.15;;;20.48;;
56373;SDS011;58212;47.034;7.376;2023-03-01T04:36:28;25.35;;;19.20;;
56373;SDS011;58212;47.034;7.376;2023-03-01T04:38:56;25.02;;;20.63;;
56373;SDS011;58212;47.034;7.376;2023-03-01T04:41:24;26.27;;;19.75;;
56373;SDS011;58212;47.034;7.376;2023-03-01T04:43:51;24.23;;;18.75;;
56373;SDS011;58212;47.034;7.376;2023-03-01T04:46:19;27.83;;;20.33;;
56373;SDS011;58212;47.034;7.376;2023-03-01T04:48:47;25.27;;;20.17;;
56373;SDS011;58212;47.034;7.376;2023-03-01T04:51:14;27.73;;;20.65;;
56373;SDS011;58212;47.034;7.376;2023-03-01T04:53:44;24.92;;;18.73;;
56373;SDS011;58212;47.034;7.376;2023-03-01T04:56:12;25.50;;;19.33;;
56373;SDS011;58212;47.034;7.376;2023-03-01T04:58:39;24.15;;;18.70;;
56373;SDS011;58212;47.034;7.376;2023-03-01T05:01:10;24.52;;;18.80;;
56373;SDS011;58212;47.034;7.376;2023-03-01T05:03:42;25.55;;;19.38;;
56373;SDS011;58212;47.034;7.376;2023-03-01T05:06:09;25.00;;;18.33;;
56373;SDS011;58212;47.034;7.376;2023-03-01T05:08:37;23.33;;;18.60;;
56373;SDS011;58212;47.034;7.376;2023-03-01T05:11:04;25.27;;;19.88;;
56373;SDS011;58212;47.034;7.376;2023-03-01T05:13:35;25.40;;;19.88;;
56373;SDS011;58212;47.034;7.376;2023-03-01T05:16:04;24.85;;;20.05;;
56373;SDS011;58212;47.034;7.376;2023-03-01T05:18:36;27.08;;;19.73;;
56373;SDS011;58212;47.034;7.376;2023-03-01T05:21:04;27.75;;;21.27;;
56373;SDS011;58212;47.034;7.376;2023-03-01T05:23:32;26.25;;;21.13;;
56373;SDS011;58212;47.034;7.376;2023-03-01T05:26:01;27.83;;;21.20;;
56373;SDS011;58212;47.034;7.376;2023-03-01T05:28:31;26.45;;;20.13;;
56373;SDS011;58212;47.034;7.376;2023-03-01T05:31:00;26.65;;;22.00;;
56373;SDS011;58212;47.034;7.376;2023-03-01T05:33:27;27.42;;;21.40;;
56373;SDS011;58212;47.034;7.376;2023-03-01T05:35:54;25.27;;;20.52;;
56373;SDS011;58212;47.034;7.376;2023-03-01T05:38:21;23.80;;;19.77;;
56373;SDS011;58212;47.034;7.376;2023-03-01T05:40:48;26.60;;;21.67;;
56373;SDS011;58212;47.034;7.376;2023-03-01T05:43:16;28.13;;;21.60;;
56373;SDS011;58212;47.034;7.376;2023-03-01T05:45:43;26.42;;;20.65;;
56373;SDS011;58212;47.034;7.376;2023-03-01T05:48:11;25.23;;;20.45;;
56373;SDS011;58212;47.034;7.376;2023-03-01T05:50:41;25.35;;;20.40;;
56373;SDS011;58212;47.034;7.376;2023-03-01T05:53:10;27.10;;;21.83;;
56373;SDS011;58212;47.034;7.376;2023-03-01T05:55:38;27.35;;;21.90;;
56373;SDS011;58212;47.034;7.376;2023-03-01T05:58:06;29.10;;;21.42;;
56373;SDS011;58212;47.034;7.376;2023-03-01T06:00:35;26.23;;;21.67;;
56373;SDS011;58212;47.034;7.376;2023-03-01T06:03:02;29.05;;;23.38;;
56373;SDS011;58212;47.034;7.376;2023-03-01T06:05:31;27.75;;;21.92;;
56373;SDS011;58212;47.034;7.376;2023-03-01T06:07:58;27.67;;;21.92;;
56373;SDS011;58212;47.034;7.376;2023-03-01T06:10:26;26.70;;;21.60;;
56373;SDS011;58212;47.034;7.376;2023-03-01T06:13:18;26.75;;;21.55;;
56373;SDS011;58212;47.034;7.376;2023-03-01T06:15:46;27.38;;;22.02;;
56373;SDS011;58212;47.034;7.376;2023-03-01T06:18:13;26.83;;;21.65;;
56373;SDS011;58212;47.034;7.376;2023-03-01T06:20:41;27.63;;;22.08;;
56373;SDS011;58212;47.034;7.376;2023-03-01T06:23:10;30.55;;;23.23;;
56373;SDS011;58212;47.034;7.376;2023-03-01T06:25:36;26.02;;;20.65;;
56373;SDS011;58212;47.034;7.376;2023-03-01T06:28:03;27.27;;;21.95;;
56373;SDS011;58212;47.034;7.376;2023-03-01T06:30:30;27.58;;;21.30;;
56373;SDS011;58212;47.034;7.376;2023-03-01T06:32:57;26.65;;;21.13;;
56373;SDS011;58212;47.034;7.376;2023-03-01T06:35:26;28.73;;;21.35;;
56373;SDS011;58212;47.034;7.376;2023-03-01T06:37:56;27.55;;;20.70;;
56373;SDS011;58212;47.034;7.376;2023-03-01T06:40:24;29.25;;;21.17;;
56373;SDS011;58212;47.034;7.376;2023-03-01T06:42:51;30.73;;;21.20;;
56373;SDS011;58212;47.034;7.376;2023-03-01T06:45:19;27.77;;;21.52;;
56373;SDS011;58212;47.034;7.376;2023-03-01T06:47:47;26.75;;;19.60;;
56373;SDS011;58212;47.034;7.376;2023-03-01T06:50:14;29.13;;;21.98;;
56373;SDS011;58212;47.034;7.376;2023-03-01T06:52:42;29.13;;;22.08;;
56373;SDS011;58212;47.034;7.376;2023-03-01T06:55:11;30.23;;;22.55;;
56373;SDS011;58212;47.034;7.376;2023-03-01T06:57:38;29.45;;;21.65;;
56373;SDS011;58212;47.034;7.376;2023-03-01T07:00:06;28.77;;;21.30;;
56373;SDS011;58212;47.034;7.376;2023-03-01T07:02:34;30.42;;;21.15;;
56373;SDS011;58212;47.034;7.376;2023-03-01T07:05:00;32.13;;;23.10;;
56373;SDS011;58212;47.034;7.376;2023-03-01T07:07:27;27.85;;;21.15;;
56373;SDS011;58212;47.034;7.376;2023-03-01T07:09:54;30.23;;;21.05;;
56373;SDS011;58212;47.034;7.376;2023-03-01T07:12:22;27.98;;;20.77;;
56373;SDS011;58212;47.034;7.376;2023-03-01T07:14:49;27.40;;;20.67;;
56373;SDS011;58212;47.034;7.376;2023-03-01T07:17:17;36.33;;;21.85;;
56373;SDS011;58212;47.034;7.376;2023-03-01T07:19:43;30.30;;;20.48;;
56373;SDS011;58212;47.034;7.376;2023-03-01T07:22:11;28.17;;;20.45;;
56373;SDS011;58212;47.034;7.376;2023-03-01T07:24:37;28.85;;;21.25;;
56373;SDS011;58212;47.034;7.376;2023-03-01T07:27:04;29.40;;;21.38;;
56373;SDS011;58212;47.034;7.376;2023-03-01T07:29:33;30.38;;;22.30;;
56373;SDS011;58212;47.034;7.376;2023-03-01T07:32:03;30.50;;;22.13;;
56373;SDS011;58212;47.034;7.376;2023-03-01T07:34:31;31.80;;;22.55;;
56373;SDS011;58212;47.034;7.376;2023-03-01T07:36:58;32.47;;;22.48;;
56373;SDS011;58212;47.034;7.376;2023-03-01T07:39:25;30.25;;;21.75;;
56373;SDS011;58212;47.034;7.376;2023-03-01T07:41:54;28.67;;;21.90;;
56373;SDS011;58212;47.034;7.376;2023-03-01T07:44:22;28.23;;;22.58;;
56373;SDS011;58212;47.034;7.376;2023-03-01T07:46:50;29.52;;;23.60;;
56373;SDS011;58212;47.034;7.376;2023-03-01T07:49:23;27.90;;;22.00;;
56373;SDS011;58212;47.034;7.376;2023-03-01T07:51:51;29.05;;;23.00;;
56373;SDS011;58212;47.034;7.376;2023-03-01T07:54:18;28.40;;;21.92;;
56373;SDS011;58212;47.034;7.376;2023-03-01T07:56:45;29.95;;;21.70;;
56373;SDS011;58212;47.034;7.376;2023-03-01T07:59:12;26.83;;;20.70;;
56373;SDS011;58212;47.034;7.376;2023-03-01T08:01:39;26.17;;;20.90;;
56373;SDS011;58212;47.034;7.376;2023-03-01T08:04:08;26.17;;;20.95;;
56373;SDS011;58212;47.034;7.376;2023-03-01T08:06:35;28.38;;;22.00;;
56373;SDS011;58212;47.034;7.376;2023-03-01T08:09:02;26.83;;;21.45;;
56373;SDS011;58212;47.034;7.376;2023-03-01T08:11:29;30.10;;;21.80;;
56373;SDS011;58212;47.034;7.376;2023-03-01T08:13:56;32.75;;;23.25;;
56373;SDS011;58212;47.034;7.376;2023-03-01T08:16:23;27.83;;;21.65;;
56373;SDS011;58212;47.034;7.376;2023-03-01T08:18:50;27.80;;;21.27;;
56373;SDS011;58212;47.034;7.376;2023-03-01T08:21:19;43.30;;;23.25;;
56373;SDS011;58212;47.034;7.376;2023-03-01T08:23:46;32.20;;;21.17;;
56373;SDS011;58212;47.034;7.376;2023-03-01T08:26:15;29.40;;;21.42;;
56373;SDS011;58212;47.034;7.376;2023-03-01T08:28:44;28.83;;;21.60;;
56373;SDS011;58212;47.034;7.376;2023-03-01T08:31:16;25.65;;;20.17;;
56373;SDS011;58212;47.034;7.376;2023-03-01T08:33:44;27.77;;;20.77;;
56373;SDS011;58212;47.034;7.376;2023-03-01T08:36:15;28.60;;;20.92;;
56373;SDS011;58212;47.034;7.376;2023-03-01T08:38:44;28.60;;;21.63;;
56373;SDS011;58212;47.034;7.376;2023-03-01T08:41:12;27.95;;;21.70;;
56373;SDS011;58212;47.034;7.376;2023-03-01T08:43:39;32.70;;;22.52;;
56373;SDS011;58212;47.034;7.376;2023-03-01T08:46:06;27.90;;;21.92;;
56373;SDS011;58212;47.034;7.376;2023-03-01T08:48:33;29.50;;;22.13;;
56373;SDS011;58212;47.034;7.376;2023-03-01T08:51:06;33.90;;;21.42;;
56373;SDS011;58212;47.034;7.376;2023-03-01T08:53:38;28.73;;;21.73;;
56373;SDS011;58212;47.034;7.376;2023-03-01T08:56:08;29.50;;;22.35;;
56373;SDS011;58212;47.034;7.376;2023-03-01T08:58:37;30.25;;;22.08;;
56373;SDS011;58212;47.034;7.376;2023-03-01T09:01:06;32.08;;;23.50;;
56373;SDS011;58212;47.034;7.376;2023-03-01T09:03:34;33.97;;;23.90;;
56373;SDS011;58212;47.034;7.376;2023-03-01T09:06:02;28.40;;;22.25;;
56373;SDS011;58212;47.034;7.376;2023-03-01T09:08:30;30.90;;;23.45;;
56373;SDS011;58212;47.034;7.376;2023-03-01T09:10:57;29.77;;;22.80;;
56373;SDS011;58212;47.034;7.376;2023-03-01T09:13:51;31.67;;;23.35;;
56373;SDS011;58212;47.034;7.376;2023-03-01T09:16:19;33.05;;;23.20;;
56373;SDS011;58212;47.034;7.376;2023-03-01T09:18:48;31.30;;;22.52;;
56373;SDS011;58212;47.034;7.376;2023-03-01T09:21:16;26.92;;;22.17;;
56373;SDS011;58212;47.034;7.376;2023-03-01T09:24:12;28.60;;;21.92;;
56373;SDS011;58212;47.034;7.376;2023-03-01T09:26:40;30.17;;;21.38;;
56373;SDS011;58212;47.034;7.376;2023-03-01T09:29:09;26.88;;;20.55;;
56373;SDS011;58212;47.034;7.376;2023-03-01T09:31:36;33.22;;;22.23;;
56373;SDS011;58212;47.034;7.376;2023-03-01T09:34:03;28.35;;;20.92;;
56373;SDS011;58212;47.034;7.376;2023-03-01T09:36:30;27.77;;;19.90;;
56373;SDS011;58212;47.034;7.376;2023-03-01T09:38:57;25.90;;;20.13;;
56373;SDS011;58212;47.034;7.376;2023-03-01T09:41:37;27.73;;;20.65;;
56373;SDS011;58212;47.034;7.376;2023-03-01T09:44:13;27.60;;;19.55;;
56373;SDS011;58212;47.034;7.376;2023-03-01T09:46:47;25.52;;;20.35;;
56373;SDS011;58212;47.034;7.376;2023-03-01T09:49:15;27.42;;;20.63;;
56373;SDS011;58212;47.034;7.376;2023-03-01T09:51:47;28.95;;;20.02;;
56373;SDS011;58212;47.034;7.376;2023-03-01T09:54:28;28.25;;;20.60;;
56373;SDS011;58212;47.034;7.376;2023-03-01T10:00:03;28.17;;;20.70;;
56373;SDS011;58212;47.034;7.376;2023-03-01T10:02:39;31.08;;;20.70;;
56373;SDS011;58212;47.034;7.376;2023-03-01T10:05:14;29.85;;;20.67;;
56373;SDS011;58212;47.034;7.376;2023-03-01T10:07:57;28.65;;;21.38;;
56373;SDS011;58212;47.034;7.376;2023-03-01T10:10:42;29.00;;;21.48;;
56373;SDS011;58212;47.034;7.376;2023-03-01T10:13:13;30.48;;;20.92;;
56373;SDS011;58212;47.034;7.376;2023-03-01T10:15:45;26.40;;;19.75;;
56373;SDS011;58212;47.034;7.376;2023-03-01T10:18:24;30.35;;;21.30;;
56373;SDS011;58212;47.034;7.376;2023-03-01T10:20:53;30.10;;;21.08;;
56373;SDS011;58212;47.034;7.376;2023-03-01T10:23:25;29.50;;;22.08;;
56373;SDS011;58212;47.034;7.376;2023-03-01T10:25:59;31.13;;;22.70;;
56373;SDS011;58212;47.034;7.376;2023-03-01T10:28:38;35.53;;;22.60;;
56373;SDS011;58212;47.034;7.376;2023-03-01T10:31:14;27.90;;;21.67;;
56373;SDS011;58212;47.034;7.376;2023-03-01T10:33:44;29.55;;;21.35;;
56373;SDS011;58212;47.034;7.376;2023-03-01T10:36:13;32.03;;;21.67;;
56373;SDS011;58212;47.034;7.376;2023-03-01T10:38:47;31.58;;;22.23;;
56373;SDS011;58212;47.034;7.376;2023-03-01T10:41:18;30.40;;;22.02;;
56373;SDS011;58212;47.034;7.376;2023-03-01T10:43:45;30.13;;;21.48;;
56373;SDS011;58212;47.034;7.376;2023-03-01T10:46:23;32.30;;;23.48;;
56373;SDS011;58212;47.034;7.376;2023-03-01T10:51:41;32.70;;;23.15;;
56373;SDS011;58212;47.034;7.376;2023-03-01T10:54:15;31.15;;;24.10;;
56373;SDS011;58212;47.034;7.376;2023-03-01T10:56:48;29.40;;;22.60;;
56373;SDS011;58212;47.034;7.376;2023-03-01T10:59:22;30.42;;;22.75;;
56373;SDS011;58212;47.034;7.376;2023-03-01T11:02:02;30.33;;;23.17;;
56373;SDS011;58212;47.034;7.376;2023-03-01T11:04:39;33.05;;;23.10;;
56373;SDS011;58212;47.034;7.376;2023-03-01T11:07:07;33.35;;;23.20;;
56373;SDS011;58212;47.034;7.376;2023-03-01T11:09:34;31.58;;;23.52;;
56373;SDS011;58212;47.034;7.376;2023-03-01T11:12:03;29.10;;;21.85;;
56373;SDS011;58212;47.034;7.376;2023-03-01T11:14:39;31.83;;;22.50;;
56373;SDS011;58212;47.034;7.376;2023-03-01T11:17:15;32.88;;;23.13;;
56373;SDS011;58212;47.034;7.376;2023-03-01T11:19:59;28.40;;;22.55;;
56373;SDS011;58212;47.034;7.376;2023-03-01T11:22:27;31.15;;;23.23;;
56373;SDS011;58212;47.034;7.376;2023-03-01T11:24:56;31.92;;;22.63;;
56373;SDS011;58212;47.034;7.376;2023-03-01T11:27:28;29.67;;;21.83;;
56373;SDS011;58212;47.034;7.376;2023-03-01T11:29:59;29.65;;;21.73;;
56373;SDS011;58212;47.034;7.376;2023-03-01T11:32:33;27.85;;;21.15;;
56373;SDS011;58212;47.034;7.376;2023-03-01T11:35:08;28.75;;;21.83;;
56373;SDS011;58212;47.034;7.376;2023-03-01T11:37:40;29.05;;;22.60;;
56373;SDS011;58212;47.034;7.376;2023-03-01T11:43:15;32.53;;;22.42;;
56373;SDS011;58212;47.034;7.376;2023-03-01T11:45:57;31.30;;;23.00;;
56373;SDS011;58212;47.034;7.376;2023-03-01T11:48:51;31.25;;;24.15;;
56373;SDS011;58212;47.034;7.376;2023-03-01T11:51:24;28.63;;;21.77;;
56373;SDS011;58212;47.034;7.376;2023-03-01T11:54:04;30.63;;;22.85;;
56373;SDS011;58212;47.034;7.376;2023-03-01T11:56:40;30.27;;;21.83;;
56373;SDS011;58212;47.034;7.376;2023-03-01T11:59:44;29.60;;;21.80;;
56373;SDS011;58212;47.034;7.376;2023-03-01T12:02:27;31.65;;;23.42;;
56373;SDS011;58212;47.034;7.376;2023-03-01T12:05:34;31.10;;;22.52;;
56373;SDS011;58212;47.034;7.376;2023-03-01T12:08:30;29.60;;;21.42;;
56373;SDS011;58212;47.034;7.376;2023-03-01T12:11:03;29.88;;;21.80;;
56373;SDS011;58212;47.034;7.376;2023-03-01T12:13:44;28.77;;;21.50;;
56373;SDS011;58212;47.034;7.376;2023-03-01T12:16:50;29.05;;;20.98;;
56373;SDS011;58212;47.034;7.376;2023-03-01T12:19:33;26.92;;;20.98;;
56373;SDS011;58212;47.034;7.376;2023-03-01T12:22:18;30.77;;;22.63;;
56373;SDS011;58212;47.034;7.376;2023-03-01T12:25:05;29.17;;;22.67;;
56373;SDS011;58212;47.034;7.376;2023-03-01T12:27:58;29.85;;;22.50;;
56373;SDS011;58212;47.034;7.376;2023-03-01T12:30:40;29.88;;;22.27;;
56373;SDS011;58212;47.034;7.376;2023-03-01T12:33:20;32.90;;;24.08;;
56373;SDS011;58212;47.034;7.376;2023-03-01T12:36:31;32.95;;;22.40;;
56373;SDS011;58212;47.034;7.376;2023-03-01T12:39:15;31.65;;;22.42;;
56373;SDS011;58212;47.034;7.376;2023-03-01T12:41:54;30.80;;;22.95;;
56373;SDS011;58212;47.034;7.376;2023-03-01T12:44:31;32.53;;;22.27;;
56373;SDS011;58212;47.034;7.376;2023-03-01T12:47:24;32.65;;;23.65;;
56373;SDS011;58212;47.034;7.376;2023-03-01T12:50:04;31.35;;;23.13;;
56373;SDS011;58212;47.034;7.376;2023-03-01T12:52:38;33.13;;;23.23;;
56373;SDS011;58212;47.034;7.376;2023-03-01T12:55:17;29.30;;;23.05;;
56373;SDS011;58212;47.034;7.376;2023-03-01T12:57:51;28.08;;;22.23;;
56373;SDS011;58212;47.034;7.376;2023-03-01T13:00:27;31.17;;;23.10;;
56373;SDS011;58212;47.034;7.376;2023-03-01T13:03:00;29.38;;;22.23;;
56373;SDS011;58212;47.034;7.376;2023-03-01T13:05:41;31.13;;;23.70;;
56373;SDS011;58212;47.034;7.376;2023-03-01T13:08:20;30.98;;;22.88;;
56373;SDS011;58212;47.034;7.376;2023-03-01T13:10:57;27.70;;;22.08;;
56373;SDS011;58212;47.034;7.376;2023-03-01T13:13:28;29.33;;;22.35;;
56373;SDS011;58212;47.034;7.376;2023-03-01T13:15:55;31.05;;;23.55;;
56373;SDS011;58212;47.034;7.376;2023-03-01T13:18:28;29.40;;;22.05;;
56373;SDS011;58212;47.034;7.376;2023-03-01T13:20:57;31.83;;;23.63;;
56373;SDS011;58212;47.034;7.376;2023-03-01T13:23:28;31.10;;;23.63;;
56373;SDS011;58212;47.034;7.376;2023-03-01T13:26:01;29.83;;;23.20;;
56373;SDS011;58212;47.034;7.376;2023-03-01T13:28:50;31.13;;;22.85;;
56373;SDS011;58212;47.034;7.376;2023-03-01T13:34:40;30.70;;;24.73;;
56373;SDS011;58212;47.034;7.376;2023-03-01T13:37:55;40.13;;;30.67;;
56373;SDS011;58212;47.034;7.376;2023-03-01T13:41:13;56.42;;;41.42;;
56373;SDS011;58212;47.034;7.376;2023-03-01T13:43:41;31.50;;;24.90;;
56373;SDS011;58212;47.034;7.376;2023-03-01T13:46:10;31.85;;;22.25;;
56373;SDS011;58212;47.034;7.376;2023-03-01T13:48:44;32.38;;;22.77;;
56373;SDS011;58212;47.034;7.376;2023-03-01T13:51:14;31.45;;;23.67;;
56373;SDS011;58212;47.034;7.376;2023-03-01T13:53:42;38.97;;;28.95;;
56373;SDS011;58212;47.034;7.376;2023-03-01T13:56:14;37.10;;;28.30;;
56373;SDS011;58212;47.034;7.376;2023-03-01T13:58:46;38.65;;;27.20;;
56373;SDS011;58212;47.034;7.376;2023-03-01T14:01:26;36.97;;;27.55;;
56373;SDS011;58212;47.034;7.376;2023-03-01T14:04:20;32.65;;;23.60;;
56373;SDS011;58212;47.034;7.376;2023-03-01T14:06:48;37.72;;;27.33;;
56373;SDS011;58212;47.034;7.376;2023-03-01T14:09:16;31.20;;;24.63;;
56373;SDS011;58212;47.034;7.376;2023-03-01T14:11:59;36.08;;;26.63;;
56373;SDS011;58212;47.034;7.376;2023-03-01T14:14:52;33.10;;;26.00;;
56373;SDS011;58212;47.034;7.376;2023-03-01T14:17:28;31.10;;;22.85;;
56373;SDS011;58212;47.034;7.376;2023-03-01T14:20:17;32.42;;;24.10;;
56373;SDS011;58212;47.034;7.376;2023-03-01T14:22:47;46.05;;;32.65;;
56373;SDS011;58212;47.034;7.376;2023-03-01T14:25:23;32.38;;;24.10;;
56373;SDS011;58212;47.034;7.376;2023-03-01T14:28:04;34.78;;;24.17;;
56373;SDS011;58212;47.034;7.376;2023-03-01T14:30:41;30.58;;;21.80;;
56373;SDS011;58212;47.034;7.376;2023-03-01T14:33:18;30.98;;;22.83;;
56373;SDS011;58212;47.034;7.376;2023-03-01T14:35:54;39.33;;;29.42;;
56373;SDS011;58212;47.034;7.376;2023-03-01T14:38:23;30.13;;;22.98;;
56373;SDS011;58212;47.034;7.376;2023-03-01T14:40:55;32.33;;;24.52;;
56373;SDS011;58212;47.034;7.376;2023-03-01T14:43:26;29.23;;;22.77;;
56373;SDS011;58212;47.034;7.376;2023-03-01T14:46:21;29.27;;;21.98;;
56373;SDS011;58212;47.034;7.376;2023-03-01T14:48:50;33.35;;;24.02;;
56373;SDS011;58212;47.034;7.376;2023-03-01T14:51:19;28.73;;;22.35;;
56373;SDS011;58212;47.034;7.376;2023-03-01T14:53:46;29.30;;;22.77;;
56373;SDS011;58212;47.034;7.376;2023-03-01T14:56:13;31.65;;;23.52;;
56373;SDS011;58212;47.034;7.376;2023-03-01T14:58:44;34.78;;;25.92;;
56373;SDS011;58212;47.034;7.376;2023-03-01T15:01:13;32.67;;;24.20;;
56373;SDS011;58212;47.034;7.376;2023-03-01T15:03:43;31.30;;;24.33;;